sensor_id;sensor_type;location;lat;lon;timestamp;P1;durP1;ratioP1;P2;durP2;ratioP2
53052;SDS011;38934;52.690;6.184;2023-07-31T00:00:14;6.60;;;3.72;;
53052;SDS011;38934;52.690;6.184;2023-07-31T00:02:41;5.07;;;3.58;;
53052;SDS011;38934;52.690;6.184;2023-07-31T00:05:08;5.32;;;3.47;;
53052;SDS011;38934;52.690;6.184;2023-07-31T00:07:34;7.20;;;3.20;;
53052;SDS011;38934;52.690;6.184;2023-07-31T00:10:00;3.60;;;3.10;;
53052;SDS011;38934;52.690;6.184;2023-07-31T00:12:26;5.47;;;3.17;;
53052;SDS011;38934;52.690;6.184;2023-07-31T00:14:52;3.85;;;3.22;;
53052;SDS011;38934;52.690;6.184;2023-07-31T00:17:18;3.13;;;2.70;;
53052;SDS011;38934;52.690;6.184;2023-07-31T00:19:44;4.53;;;3.53;;
53052;SDS011;38934;52.690;6.184;2023-07-31T00:22:11;8.25;;;3.03;;
53052;SDS011;38934;52.690;6.184;2023-07-31T00:24:37;3.92;;;2.92;;
53052;SDS011;38934;52.690;6.184;2023-07-31T00:27:03;3.70;;;2.58;;
53052;SDS011;38934;52.690;6.184;2023-07-31T00:29:29;3.08;;;2.40;;
53052;SDS011;38934;52.690;6.184;2023-07-31T00:31:55;3.55;;;2.60;;
53052;SDS011;38934;52.690;6.184;2023-07-31T00:34:21;9.68;;;2.40;;
53052;SDS011;38934;52.690;6.184;2023-07-31T00:36:48;4.53;;;2.33;;
53052;SDS011;38934;52.690;6.184;2023-07-31T00:39:14;2.65;;;2.13;;
53052;SDS011;38934;52.690;6.184;2023-07-31T00:41:40;2.80;;;2.17;;
53052;SDS011;38934;52.690;6.184;2023-07-31T00:44:06;3.30;;;2.03;;
53052;SDS011;38934;52.690;6.184;2023-07-31T00:46:32;2.55;;;2.15;;
53052;SDS011;38934;52.690;6.184;2023-07-31T00:48:57;2.97;;;1.77;;
53052;SDS011;38934;52.690;6.184;2023-07-31T00:51:24;1.92;;;1.55;;
53052;SDS011;38934;52.690;6.184;2023-07-31T00:53:50;2.45;;;1.95;;
53052;SDS011;38934;52.690;6.184;2023-07-31T00:56:19;2.10;;;1.90;;
53052;SDS011;38934;52.690;6.184;2023-07-31T00:58:45;2.42;;;1.50;;
53052;SDS011;38934;52.690;6.184;2023-07-31T01:01:11;1.75;;;1.50;;
53052;SDS011;38934;52.690;6.184;2023-07-31T01:03:37;3.80;;;1.50;;
53052;SDS011;38934;52.690;6.184;2023-07-31T01:08:32;3.50;;;1.88;;
53052;SDS011;38934;52.690;6.184;2023-07-31T01:11:07;2.78;;;1.55;;
53052;SDS011;38934;52.690;6.184;2023-07-31T01:13:35;4.63;;;1.70;;
53052;SDS011;38934;52.690;6.184;2023-07-31T01:16:02;2.55;;;1.77;;
53052;SDS011;38934;52.690;6.184;2023-07-31T01:18:28;1.92;;;1.70;;
53052;SDS011;38934;52.690;6.184;2023-07-31T01:20:54;3.55;;;1.83;;
53052;SDS011;38934;52.690;6.184;2023-07-31T01:23:27;2.20;;;2.00;;
53052;SDS011;38934;52.690;6.184;2023-07-31T01:26:11;2.80;;;2.20;;
53052;SDS011;38934;52.690;6.184;2023-07-31T01:28:44;4.03;;;2.40;;
53052;SDS011;38934;52.690;6.184;2023-07-31T01:31:20;2.35;;;1.73;;
53052;SDS011;38934;52.690;6.184;2023-07-31T01:33:48;2.25;;;2.03;;
53052;SDS011;38934;52.690;6.184;2023-07-31T01:36:15;2.30;;;2.10;;
53052;SDS011;38934;52.690;6.184;2023-07-31T01:38:41;2.40;;;1.90;;
53052;SDS011;38934;52.690;6.184;2023-07-31T01:41:07;2.65;;;2.17;;
53052;SDS011;38934;52.690;6.184;2023-07-31T01:43:33;3.65;;;2.20;;
53052;SDS011;38934;52.690;6.184;2023-07-31T01:45:59;2.67;;;2.38;;
53052;SDS011;38934;52.690;6.184;2023-07-31T01:48:25;2.70;;;2.17;;
53052;SDS011;38934;52.690;6.184;2023-07-31T01:50:51;3.38;;;2.03;;
53052;SDS011;38934;52.690;6.184;2023-07-31T01:53:17;2.50;;;2.13;;
53052;SDS011;38934;52.690;6.184;2023-07-31T01:55:43;2.78;;;2.40;;
53052;SDS011;38934;52.690;6.184;2023-07-31T01:58:09;3.85;;;2.50;;
53052;SDS011;38934;52.690;6.184;2023-07-31T02:00:35;2.80;;;2.45;;
53052;SDS011;38934;52.690;6.184;2023-07-31T02:03:01;3.03;;;2.17;;
53052;SDS011;38934;52.690;6.184;2023-07-31T02:05:27;4.05;;;2.47;;
53052;SDS011;38934;52.690;6.184;2023-07-31T02:07:53;2.35;;;2.15;;
53052;SDS011;38934;52.690;6.184;2023-07-31T02:10:19;2.15;;;2.03;;
53052;SDS011;38934;52.690;6.184;2023-07-31T02:12:45;3.17;;;2.35;;
53052;SDS011;38934;52.690;6.184;2023-07-31T02:15:11;4.43;;;2.42;;
53052;SDS011;38934;52.690;6.184;2023-07-31T02:17:37;3.42;;;2.42;;
53052;SDS011;38934;52.690;6.184;2023-07-31T02:20:03;4.75;;;2.20;;
53052;SDS011;38934;52.690;6.184;2023-07-31T02:22:29;3.20;;;2.05;;
53052;SDS011;38934;52.690;6.184;2023-07-31T02:24:55;4.60;;;1.80;;
53052;SDS011;38934;52.690;6.184;2023-07-31T02:27:21;4.93;;;2.30;;
53052;SDS011;38934;52.690;6.184;2023-07-31T02:29:52;2.88;;;2.20;;
53052;SDS011;38934;52.690;6.184;2023-07-31T02:32:18;2.58;;;2.10;;
53052;SDS011;38934;52.690;6.184;2023-07-31T02:34:44;7.22;;;1.90;;
53052;SDS011;38934;52.690;6.184;2023-07-31T02:37:10;3.47;;;2.00;;
53052;SDS011;38934;52.690;6.184;2023-07-31T02:39:36;2.47;;;2.03;;
53052;SDS011;38934;52.690;6.184;2023-07-31T02:42:02;4.97;;;2.60;;
53052;SDS011;38934;52.690;6.184;2023-07-31T02:44:28;3.08;;;2.38;;
53052;SDS011;38934;52.690;6.184;2023-07-31T02:46:54;4.05;;;2.30;;
53052;SDS011;38934;52.690;6.184;2023-07-31T02:49:20;3.53;;;2.20;;
53052;SDS011;38934;52.690;6.184;2023-07-31T02:51:46;4.05;;;2.95;;
53052;SDS011;38934;52.690;6.184;2023-07-31T02:54:12;4.93;;;2.70;;
53052;SDS011;38934;52.690;6.184;2023-07-31T02:56:38;4.80;;;2.70;;
53052;SDS011;38934;52.690;6.184;2023-07-31T02:59:04;3.40;;;2.92;;
53052;SDS011;38934;52.690;6.184;2023-07-31T03:01:30;4.25;;;2.72;;
53052;SDS011;38934;52.690;6.184;2023-07-31T03:03:56;7.85;;;3.05;;
53052;SDS011;38934;52.690;6.184;2023-07-31T03:06:22;4.95;;;3.08;;
53052;SDS011;38934;52.690;6.184;2023-07-31T03:08:48;5.63;;;3.05;;
53052;SDS011;38934;52.690;6.184;2023-07-31T03:11:14;5.22;;;3.17;;
53052;SDS011;38934;52.690;6.184;2023-07-31T03:13:40;5.93;;;3.45;;
53052;SDS011;38934;52.690;6.184;2023-07-31T03:16:06;5.80;;;3.50;;
53052;SDS011;38934;52.690;6.184;2023-07-31T03:18:32;7.85;;;3.80;;
53052;SDS011;38934;52.690;6.184;2023-07-31T03:20:58;7.07;;;3.70;;
53052;SDS011;38934;52.690;6.184;2023-07-31T03:23:27;8.02;;;3.65;;
53052;SDS011;38934;52.690;6.184;2023-07-31T03:26:00;6.88;;;3.50;;
53052;SDS011;38934;52.690;6.184;2023-07-31T03:28:26;7.22;;;3.50;;
53052;SDS011;38934;52.690;6.184;2023-07-31T03:30:52;7.25;;;3.38;;
53052;SDS011;38934;52.690;6.184;2023-07-31T03:33:18;11.82;;;4.03;;
53052;SDS011;38934;52.690;6.184;2023-07-31T03:35:45;6.88;;;3.47;;
53052;SDS011;38934;52.690;6.184;2023-07-31T03:38:11;7.28;;;3.78;;
53052;SDS011;38934;52.690;6.184;2023-07-31T03:40:37;11.70;;;4.18;;
53052;SDS011;38934;52.690;6.184;2023-07-31T03:43:03;8.65;;;4.03;;
53052;SDS011;38934;52.690;6.184;2023-07-31T03:45:29;8.73;;;3.80;;
53052;SDS011;38934;52.690;6.184;2023-07-31T03:47:55;8.63;;;3.75;;
53052;SDS011;38934;52.690;6.184;2023-07-31T03:50:21;7.80;;;3.60;;
53052;SDS011;38934;52.690;6.184;2023-07-31T03:52:47;8.93;;;3.63;;
53052;SDS011;38934;52.690;6.184;2023-07-31T03:55:13;9.23;;;4.25;;
53052;SDS011;38934;52.690;6.184;2023-07-31T03:57:39;10.23;;;4.03;;
53052;SDS011;38934;52.690;6.184;2023-07-31T04:00:05;9.35;;;4.40;;
53052;SDS011;38934;52.690;6.184;2023-07-31T04:02:31;8.82;;;4.07;;
53052;SDS011;38934;52.690;6.184;2023-07-31T04:04:58;15.45;;;5.18;;
53052;SDS011;38934;52.690;6.184;2023-07-31T04:07:24;17.48;;;5.32;;
53052;SDS011;38934;52.690;6.184;2023-07-31T04:09:50;15.88;;;6.03;;
53052;SDS011;38934;52.690;6.184;2023-07-31T04:12:16;21.27;;;6.50;;
53052;SDS011;38934;52.690;6.184;2023-07-31T04:14:42;21.90;;;7.68;;
53052;SDS011;38934;52.690;6.184;2023-07-31T04:17:08;23.77;;;7.38;;
53052;SDS011;38934;52.690;6.184;2023-07-31T04:19:34;21.02;;;7.65;;
53052;SDS011;38934;52.690;6.184;2023-07-31T04:22:00;20.40;;;7.70;;
53052;SDS011;38934;52.690;6.184;2023-07-31T04:24:26;21.00;;;7.78;;
53052;SDS011;38934;52.690;6.184;2023-07-31T04:26:52;20.85;;;7.00;;
53052;SDS011;38934;52.690;6.184;2023-07-31T04:29:18;23.23;;;7.35;;
53052;SDS011;38934;52.690;6.184;2023-07-31T04:31:44;21.10;;;6.95;;
53052;SDS011;38934;52.690;6.184;2023-07-31T04:34:10;22.83;;;7.28;;
53052;SDS011;38934;52.690;6.184;2023-07-31T04:36:39;23.80;;;7.35;;
53052;SDS011;38934;52.690;6.184;2023-07-31T04:39:05;22.08;;;7.88;;
53052;SDS011;38934;52.690;6.184;2023-07-31T04:41:31;21.63;;;7.80;;
53052;SDS011;38934;52.690;6.184;2023-07-31T04:43:57;23.63;;;8.00;;
53052;SDS011;38934;52.690;6.184;2023-07-31T04:46:23;24.42;;;8.60;;
53052;SDS011;38934;52.690;6.184;2023-07-31T04:48:49;25.73;;;7.80;;
53052;SDS011;38934;52.690;6.184;2023-07-31T04:51:15;23.73;;;8.10;;
53052;SDS011;38934;52.690;6.184;2023-07-31T04:53:41;24.73;;;8.23;;
53052;SDS011;38934;52.690;6.184;2023-07-31T04:56:07;22.88;;;7.72;;
53052;SDS011;38934;52.690;6.184;2023-07-31T04:58:33;25.95;;;9.05;;
53052;SDS011;38934;52.690;6.184;2023-07-31T05:00:59;21.85;;;8.20;;
53052;SDS011;38934;52.690;6.184;2023-07-31T05:03:25;24.85;;;8.65;;
53052;SDS011;38934;52.690;6.184;2023-07-31T05:05:51;28.83;;;8.70;;
53052;SDS011;38934;52.690;6.184;2023-07-31T05:08:17;27.25;;;8.48;;
53052;SDS011;38934;52.690;6.184;2023-07-31T05:10:43;30.20;;;8.75;;
53052;SDS011;38934;52.690;6.184;2023-07-31T05:13:09;30.55;;;8.65;;
53052;SDS011;38934;52.690;6.184;2023-07-31T05:15:35;28.38;;;9.18;;
53052;SDS011;38934;52.690;6.184;2023-07-31T05:18:01;32.92;;;9.40;;
53052;SDS011;38934;52.690;6.184;2023-07-31T05:20:27;26.05;;;8.93;;
53052;SDS011;38934;52.690;6.184;2023-07-31T05:22:53;30.20;;;9.45;;
53052;SDS011;38934;52.690;6.184;2023-07-31T05:25:19;31.80;;;9.13;;
53052;SDS011;38934;52.690;6.184;2023-07-31T05:27:45;25.70;;;9.30;;
53052;SDS011;38934;52.690;6.184;2023-07-31T05:30:11;31.10;;;9.50;;
53052;SDS011;38934;52.690;6.184;2023-07-31T05:32:37;27.98;;;8.75;;
53052;SDS011;38934;52.690;6.184;2023-07-31T05:35:03;27.15;;;9.50;;
53052;SDS011;38934;52.690;6.184;2023-07-31T05:37:30;25.63;;;10.40;;
53052;SDS011;38934;52.690;6.184;2023-07-31T05:39:56;29.45;;;9.63;;
53052;SDS011;38934;52.690;6.184;2023-07-31T05:42:22;28.00;;;9.32;;
53052;SDS011;38934;52.690;6.184;2023-07-31T05:44:48;28.27;;;9.18;;
53052;SDS011;38934;52.690;6.184;2023-07-31T05:47:14;24.50;;;9.85;;
53052;SDS011;38934;52.690;6.184;2023-07-31T05:49:40;27.17;;;9.35;;
53052;SDS011;38934;52.690;6.184;2023-07-31T05:52:06;25.92;;;9.50;;
53052;SDS011;38934;52.690;6.184;2023-07-31T05:54:32;28.70;;;9.93;;
53052;SDS011;38934;52.690;6.184;2023-07-31T05:56:58;26.45;;;9.43;;
53052;SDS011;38934;52.690;6.184;2023-07-31T05:59:24;25.70;;;9.73;;
53052;SDS011;38934;52.690;6.184;2023-07-31T06:01:51;22.25;;;9.15;;
53052;SDS011;38934;52.690;6.184;2023-07-31T06:04:17;23.55;;;8.88;;
53052;SDS011;38934;52.690;6.184;2023-07-31T06:06:43;21.33;;;8.90;;
53052;SDS011;38934;52.690;6.184;2023-07-31T06:09:09;26.20;;;9.23;;
53052;SDS011;38934;52.690;6.184;2023-07-31T06:11:35;22.38;;;9.05;;
53052;SDS011;38934;52.690;6.184;2023-07-31T06:14:01;25.42;;;9.32;;
53052;SDS011;38934;52.690;6.184;2023-07-31T06:16:27;30.35;;;10.50;;
53052;SDS011;38934;52.690;6.184;2023-07-31T06:18:53;22.05;;;9.68;;
53052;SDS011;38934;52.690;6.184;2023-07-31T06:21:19;28.10;;;10.65;;
53052;SDS011;38934;52.690;6.184;2023-07-31T06:23:45;25.05;;;10.70;;
53052;SDS011;38934;52.690;6.184;2023-07-31T06:26:12;26.27;;;10.48;;
53052;SDS011;38934;52.690;6.184;2023-07-31T06:28:41;23.58;;;10.02;;
53052;SDS011;38934;52.690;6.184;2023-07-31T06:31:28;27.23;;;9.77;;
53052;SDS011;38934;52.690;6.184;2023-07-31T06:33:54;21.88;;;9.10;;
53052;SDS011;38934;52.690;6.184;2023-07-31T06:36:26;18.60;;;8.20;;
53052;SDS011;38934;52.690;6.184;2023-07-31T06:38:55;19.45;;;7.88;;
53052;SDS011;38934;52.690;6.184;2023-07-31T06:41:21;15.45;;;7.60;;
53052;SDS011;38934;52.690;6.184;2023-07-31T06:43:47;18.67;;;7.70;;
53052;SDS011;38934;52.690;6.184;2023-07-31T06:46:26;16.13;;;7.05;;
53052;SDS011;38934;52.690;6.184;2023-07-31T06:48:55;16.80;;;5.95;;
53052;SDS011;38934;52.690;6.184;2023-07-31T06:51:27;10.85;;;5.80;;
53052;SDS011;38934;52.690;6.184;2023-07-31T06:54:04;12.55;;;5.22;;
53052;SDS011;38934;52.690;6.184;2023-07-31T06:56:30;16.02;;;6.00;;
53052;SDS011;38934;52.690;6.184;2023-07-31T06:58:56;8.93;;;5.07;;
53052;SDS011;38934;52.690;6.184;2023-07-31T07:01:22;14.10;;;5.30;;
53052;SDS011;38934;52.690;6.184;2023-07-31T07:03:48;13.60;;;5.35;;
53052;SDS011;38934;52.690;6.184;2023-07-31T07:06:16;10.13;;;5.30;;
53052;SDS011;38934;52.690;6.184;2023-07-31T07:08:43;10.57;;;5.00;;
53052;SDS011;38934;52.690;6.184;2023-07-31T07:11:09;9.68;;;4.80;;
53052;SDS011;38934;52.690;6.184;2023-07-31T07:13:35;11.70;;;5.20;;
53052;SDS011;38934;52.690;6.184;2023-07-31T07:16:01;9.32;;;4.63;;
53052;SDS011;38934;52.690;6.184;2023-07-31T07:18:27;9.70;;;5.07;;
53052;SDS011;38934;52.690;6.184;2023-07-31T07:20:54;9.13;;;4.30;;
53052;SDS011;38934;52.690;6.184;2023-07-31T07:23:22;9.50;;;4.10;;
53052;SDS011;38934;52.690;6.184;2023-07-31T07:25:48;8.00;;;4.00;;
53052;SDS011;38934;52.690;6.184;2023-07-31T07:28:17;8.82;;;3.83;;
53052;SDS011;38934;52.690;6.184;2023-07-31T07:30:43;7.68;;;4.10;;
53052;SDS011;38934;52.690;6.184;2023-07-31T07:33:09;6.75;;;3.88;;
53052;SDS011;38934;52.690;6.184;2023-07-31T07:35:36;7.85;;;3.95;;
53052;SDS011;38934;52.690;6.184;2023-07-31T07:38:02;7.43;;;3.78;;
53052;SDS011;38934;52.690;6.184;2023-07-31T07:40:29;6.70;;;4.10;;
53052;SDS011;38934;52.690;6.184;2023-07-31T07:42:55;6.20;;;4.07;;
53052;SDS011;38934;52.690;6.184;2023-07-31T07:45:21;4.55;;;3.40;;
53052;SDS011;38934;52.690;6.184;2023-07-31T07:47:47;5.63;;;3.42;;
53052;SDS011;38934;52.690;6.184;2023-07-31T07:50:13;6.38;;;3.65;;
53052;SDS011;38934;52.690;6.184;2023-07-31T07:52:39;8.40;;;4.15;;
53052;SDS011;38934;52.690;6.184;2023-07-31T07:55:05;6.68;;;3.50;;
53052;SDS011;38934;52.690;6.184;2023-07-31T07:57:31;8.27;;;3.85;;
53052;SDS011;38934;52.690;6.184;2023-07-31T07:59:57;6.78;;;3.65;;
53052;SDS011;38934;52.690;6.184;2023-07-31T08:02:23;5.60;;;3.80;;
53052;SDS011;38934;52.690;6.184;2023-07-31T08:04:49;4.55;;;3.50;;
53052;SDS011;38934;52.690;6.184;2023-07-31T08:07:15;6.68;;;3.47;;
53052;SDS011;38934;52.690;6.184;2023-07-31T08:09:41;9.07;;;3.80;;
53052;SDS011;38934;52.690;6.184;2023-07-31T08:12:07;5.20;;;3.10;;
53052;SDS011;38934;52.690;6.184;2023-07-31T08:14:33;3.83;;;2.75;;
53052;SDS011;38934;52.690;6.184;2023-07-31T08:16:59;5.95;;;3.55;;
53052;SDS011;38934;52.690;6.184;2023-07-31T08:19:26;4.63;;;3.15;;
53052;SDS011;38934;52.690;6.184;2023-07-31T08:21:52;5.50;;;3.00;;
53052;SDS011;38934;52.690;6.184;2023-07-31T08:24:18;5.18;;;3.10;;
53052;SDS011;38934;52.690;6.184;2023-07-31T08:26:44;4.18;;;3.00;;
53052;SDS011;38934;52.690;6.184;2023-07-31T08:29:10;3.45;;;2.60;;
53052;SDS011;38934;52.690;6.184;2023-07-31T08:31:36;3.75;;;2.83;;
53052;SDS011;38934;52.690;6.184;2023-07-31T08:34:02;3.92;;;2.90;;
53052;SDS011;38934;52.690;6.184;2023-07-31T08:36:28;3.58;;;2.60;;
53052;SDS011;38934;52.690;6.184;2023-07-31T08:38:54;4.80;;;2.80;;
53052;SDS011;38934;52.690;6.184;2023-07-31T08:41:20;5.07;;;2.85;;
53052;SDS011;38934;52.690;6.184;2023-07-31T08:43:46;3.53;;;2.47;;
53052;SDS011;38934;52.690;6.184;2023-07-31T08:46:12;5.15;;;3.08;;
53052;SDS011;38934;52.690;6.184;2023-07-31T08:48:40;4.38;;;3.03;;
53052;SDS011;38934;52.690;6.184;2023-07-31T08:51:06;2.85;;;2.40;;
53052;SDS011;38934;52.690;6.184;2023-07-31T08:53:32;2.85;;;2.30;;
53052;SDS011;38934;52.690;6.184;2023-07-31T08:55:58;4.28;;;2.53;;
53052;SDS011;38934;52.690;6.184;2023-07-31T08:58:25;4.70;;;2.60;;
53052;SDS011;38934;52.690;6.184;2023-07-31T09:00:53;4.72;;;2.60;;
53052;SDS011;38934;52.690;6.184;2023-07-31T09:03:20;2.08;;;1.92;;
53052;SDS011;38934;52.690;6.184;2023-07-31T09:05:47;2.97;;;2.47;;
53052;SDS011;38934;52.690;6.184;2023-07-31T09:08:14;3.83;;;2.45;;
53052;SDS011;38934;52.690;6.184;2023-07-31T09:10:41;3.22;;;2.50;;
53052;SDS011;38934;52.690;6.184;2023-07-31T09:13:07;3.28;;;2.40;;
53052;SDS011;38934;52.690;6.184;2023-07-31T09:15:33;4.95;;;2.55;;
53052;SDS011;38934;52.690;6.184;2023-07-31T09:18:00;3.95;;;2.50;;
53052;SDS011;38934;52.690;6.184;2023-07-31T09:20:27;3.33;;;2.50;;
53052;SDS011;38934;52.690;6.184;2023-07-31T09:22:53;3.97;;;2.80;;
53052;SDS011;38934;52.690;6.184;2023-07-31T09:25:23;2.90;;;2.47;;
53052;SDS011;38934;52.690;6.184;2023-07-31T09:27:58;3.20;;;2.53;;
53052;SDS011;38934;52.690;6.184;2023-07-31T09:30:25;3.97;;;2.50;;
53052;SDS011;38934;52.690;6.184;2023-07-31T09:32:52;6.93;;;3.60;;
53052;SDS011;38934;52.690;6.184;2023-07-31T09:35:32;2.80;;;2.28;;
53052;SDS011;38934;52.690;6.184;2023-07-31T09:38:03;2.78;;;2.30;;
53052;SDS011;38934;52.690;6.184;2023-07-31T09:40:30;2.30;;;2.10;;
53052;SDS011;38934;52.690;6.184;2023-07-31T09:42:56;2.40;;;2.20;;
53052;SDS011;38934;52.690;6.184;2023-07-31T09:45:23;2.58;;;2.38;;
53052;SDS011;38934;52.690;6.184;2023-07-31T09:47:49;3.67;;;2.63;;
53052;SDS011;38934;52.690;6.184;2023-07-31T09:50:16;4.82;;;2.72;;
53052;SDS011;38934;52.690;6.184;2023-07-31T09:52:42;4.05;;;2.42;;
53052;SDS011;38934;52.690;6.184;2023-07-31T09:55:08;3.45;;;2.60;;
53052;SDS011;38934;52.690;6.184;2023-07-31T09:57:36;3.38;;;2.30;;
53052;SDS011;38934;52.690;6.184;2023-07-31T10:00:04;2.50;;;2.10;;
53052;SDS011;38934;52.690;6.184;2023-07-31T10:02:30;3.45;;;2.45;;
53052;SDS011;38934;52.690;6.184;2023-07-31T10:04:57;3.25;;;2.30;;
53052;SDS011;38934;52.690;6.184;2023-07-31T10:07:25;2.40;;;2.20;;
53052;SDS011;38934;52.690;6.184;2023-07-31T10:09:51;2.60;;;2.40;;
53052;SDS011;38934;52.690;6.184;2023-07-31T10:12:19;2.20;;;2.00;;
53052;SDS011;38934;52.690;6.184;2023-07-31T10:14:47;2.38;;;1.85;;
53052;SDS011;38934;52.690;6.184;2023-07-31T10:17:13;2.33;;;1.90;;
53052;SDS011;38934;52.690;6.184;2023-07-31T10:19:40;1.85;;;1.60;;
53052;SDS011;38934;52.690;6.184;2023-07-31T10:22:06;1.98;;;1.88;;
53052;SDS011;38934;52.690;6.184;2023-07-31T10:24:33;1.88;;;1.77;;
53052;SDS011;38934;52.690;6.184;2023-07-31T10:27:00;2.40;;;1.60;;
53052;SDS011;38934;52.690;6.184;2023-07-31T10:29:28;1.50;;;1.40;;
53052;SDS011;38934;52.690;6.184;2023-07-31T10:31:55;2.88;;;1.70;;
53052;SDS011;38934;52.690;6.184;2023-07-31T10:34:22;2.33;;;1.60;;
53052;SDS011;38934;52.690;6.184;2023-07-31T10:36:48;1.60;;;1.50;;
53052;SDS011;38934;52.690;6.184;2023-07-31T10:39:33;1.90;;;1.80;;
53052;SDS011;38934;52.690;6.184;2023-07-31T10:42:09;1.98;;;1.88;;
53052;SDS011;38934;52.690;6.184;2023-07-31T10:44:35;2.17;;;1.98;;
53052;SDS011;38934;52.690;6.184;2023-07-31T10:47:01;1.90;;;1.80;;
53052;SDS011;38934;52.690;6.184;2023-07-31T10:49:28;2.17;;;2.08;;
53052;SDS011;38934;52.690;6.184;2023-07-31T10:51:56;2.03;;;1.92;;
53052;SDS011;38934;52.690;6.184;2023-07-31T10:54:22;1.35;;;1.30;;
53052;SDS011;38934;52.690;6.184;2023-07-31T10:56:51;1.50;;;1.40;;
53052;SDS011;38934;52.690;6.184;2023-07-31T10:59:18;1.35;;;1.27;;
53052;SDS011;38934;52.690;6.184;2023-07-31T11:01:55;2.25;;;1.92;;
53052;SDS011;38934;52.690;6.184;2023-07-31T11:04:23;1.70;;;1.60;;
53052;SDS011;38934;52.690;6.184;2023-07-31T11:06:55;1.60;;;1.50;;
53052;SDS011;38934;52.690;6.184;2023-07-31T11:09:21;1.67;;;1.30;;
53052;SDS011;38934;52.690;6.184;2023-07-31T11:11:47;3.50;;;1.50;;
53052;SDS011;38934;52.690;6.184;2023-07-31T11:14:16;1.35;;;1.17;;
53052;SDS011;38934;52.690;6.184;2023-07-31T11:16:42;1.65;;;1.15;;
53052;SDS011;38934;52.690;6.184;2023-07-31T11:19:08;1.90;;;1.65;;
53052;SDS011;38934;52.690;6.184;2023-07-31T11:21:34;3.50;;;1.80;;
53052;SDS011;38934;52.690;6.184;2023-07-31T11:24:01;3.47;;;1.33;;
53052;SDS011;38934;52.690;6.184;2023-07-31T11:26:27;3.53;;;1.58;;
53052;SDS011;38934;52.690;6.184;2023-07-31T11:28:53;2.70;;;1.25;;
53052;SDS011;38934;52.690;6.184;2023-07-31T11:31:19;1.50;;;1.10;;
53052;SDS011;38934;52.690;6.184;2023-07-31T11:33:45;2.35;;;1.40;;
53052;SDS011;38934;52.690;6.184;2023-07-31T11:36:18;3.17;;;1.60;;
53052;SDS011;38934;52.690;6.184;2023-07-31T11:38:44;4.25;;;1.88;;
53052;SDS011;38934;52.690;6.184;2023-07-31T11:41:13;5.38;;;2.05;;
53052;SDS011;38934;52.690;6.184;2023-07-31T11:43:39;5.38;;;1.90;;
53052;SDS011;38934;52.690;6.184;2023-07-31T11:46:05;4.97;;;1.90;;
53052;SDS011;38934;52.690;6.184;2023-07-31T11:48:34;4.95;;;1.77;;
53052;SDS011;38934;52.690;6.184;2023-07-31T11:51:04;5.13;;;2.00;;
53052;SDS011;38934;52.690;6.184;2023-07-31T11:53:44;4.20;;;2.40;;
53052;SDS011;38934;52.690;6.184;2023-07-31T11:56:11;5.05;;;2.35;;
53052;SDS011;38934;52.690;6.184;2023-07-31T11:58:39;4.45;;;1.90;;
53052;SDS011;38934;52.690;6.184;2023-07-31T12:01:05;2.92;;;1.85;;
53052;SDS011;38934;52.690;6.184;2023-07-31T12:03:32;5.72;;;2.28;;
53052;SDS011;38934;52.690;6.184;2023-07-31T12:05:59;4.35;;;2.22;;
53052;SDS011;38934;52.690;6.184;2023-07-31T12:08:25;5.55;;;2.15;;
53052;SDS011;38934;52.690;6.184;2023-07-31T12:10:52;3.60;;;2.10;;
53052;SDS011;38934;52.690;6.184;2023-07-31T12:13:23;5.05;;;2.20;;
53052;SDS011;38934;52.690;6.184;2023-07-31T12:15:53;8.63;;;2.83;;
53052;SDS011;38934;52.690;6.184;2023-07-31T12:18:20;5.65;;;2.67;;
53052;SDS011;38934;52.690;6.184;2023-07-31T12:20:47;5.85;;;2.90;;
53052;SDS011;38934;52.690;6.184;2023-07-31T12:23:14;8.23;;;2.83;;
53052;SDS011;38934;52.690;6.184;2023-07-31T12:25:40;10.07;;;2.83;;
53052;SDS011;38934;52.690;6.184;2023-07-31T12:28:07;4.68;;;2.53;;
53052;SDS011;38934;52.690;6.184;2023-07-31T12:30:36;7.10;;;2.63;;
53052;SDS011;38934;52.690;6.184;2023-07-31T12:33:06;7.63;;;2.38;;
53052;SDS011;38934;52.690;6.184;2023-07-31T12:35:40;7.10;;;2.83;;
53052;SDS011;38934;52.690;6.184;2023-07-31T12:38:07;6.18;;;2.45;;
53052;SDS011;38934;52.690;6.184;2023-07-31T12:40:33;7.70;;;2.67;;
53052;SDS011;38934;52.690;6.184;2023-07-31T12:43:02;5.97;;;2.35;;
53052;SDS011;38934;52.690;6.184;2023-07-31T12:45:28;9.30;;;2.40;;
53052;SDS011;38934;52.690;6.184;2023-07-31T12:47:55;7.05;;;2.40;;
53052;SDS011;38934;52.690;6.184;2023-07-31T12:50:21;6.78;;;3.10;;
53052;SDS011;38934;52.690;6.184;2023-07-31T12:52:47;7.15;;;2.40;;
53052;SDS011;38934;52.690;6.184;2023-07-31T12:55:13;6.50;;;2.38;;
53052;SDS011;38934;52.690;6.184;2023-07-31T12:57:39;7.00;;;2.72;;
53052;SDS011;38934;52.690;6.184;2023-07-31T13:00:07;5.63;;;2.42;;
53052;SDS011;38934;52.690;6.184;2023-07-31T13:02:33;5.25;;;2.03;;
53052;SDS011;38934;52.690;6.184;2023-07-31T13:04:59;4.65;;;2.17;;
53052;SDS011;38934;52.690;6.184;2023-07-31T13:07:26;5.05;;;2.20;;
53052;SDS011;38934;52.690;6.184;2023-07-31T13:09:52;6.18;;;2.17;;
53052;SDS011;38934;52.690;6.184;2023-07-31T13:12:18;5.50;;;2.30;;
53052;SDS011;38934;52.690;6.184;2023-07-31T13:14:44;6.80;;;2.30;;
53052;SDS011;38934;52.690;6.184;2023-07-31T13:17:10;6.15;;;2.38;;
53052;SDS011;38934;52.690;6.184;2023-07-31T13:19:36;7.35;;;2.15;;
53052;SDS011;38934;52.690;6.184;2023-07-31T13:22:02;6.65;;;2.60;;
53052;SDS011;38934;52.690;6.184;2023-07-31T13:24:29;4.95;;;2.83;;
53052;SDS011;38934;52.690;6.184;2023-07-31T13:26:55;6.47;;;2.95;;
53052;SDS011;38934;52.690;6.184;2023-07-31T13:29:21;6.30;;;2.80;;
53052;SDS011;38934;52.690;6.184;2023-07-31T13:31:47;6.50;;;3.03;;
53052;SDS011;38934;52.690;6.184;2023-07-31T13:34:13;8.65;;;3.17;;
53052;SDS011;38934;52.690;6.184;2023-07-31T13:36:39;8.63;;;3.40;;
53052;SDS011;38934;52.690;6.184;2023-07-31T13:39:06;7.32;;;3.28;;
53052;SDS011;38934;52.690;6.184;2023-07-31T13:41:32;6.70;;;3.25;;
53052;SDS011;38934;52.690;6.184;2023-07-31T13:43:59;8.52;;;3.50;;
53052;SDS011;38934;52.690;6.184;2023-07-31T13:46:25;8.63;;;3.40;;
53052;SDS011;38934;52.690;6.184;2023-07-31T13:48:51;6.70;;;2.95;;
53052;SDS011;38934;52.690;6.184;2023-07-31T13:51:20;8.95;;;2.90;;
53052;SDS011;38934;52.690;6.184;2023-07-31T13:53:46;10.98;;;2.80;;
53052;SDS011;38934;52.690;6.184;2023-07-31T13:56:12;8.35;;;2.85;;
53052;SDS011;38934;52.690;6.184;2023-07-31T13:58:38;7.18;;;2.90;;
53052;SDS011;38934;52.690;6.184;2023-07-31T14:01:04;6.63;;;2.35;;
53052;SDS011;38934;52.690;6.184;2023-07-31T14:03:30;5.70;;;2.65;;
53052;SDS011;38934;52.690;6.184;2023-07-31T14:05:56;9.13;;;3.22;;
53052;SDS011;38934;52.690;6.184;2023-07-31T14:08:22;7.30;;;2.80;;
53052;SDS011;38934;52.690;6.184;2023-07-31T14:10:48;6.13;;;2.78;;
53052;SDS011;38934;52.690;6.184;2023-07-31T14:13:14;5.70;;;2.63;;
53052;SDS011;38934;52.690;6.184;2023-07-31T14:15:41;7.70;;;3.17;;
53052;SDS011;38934;52.690;6.184;2023-07-31T14:18:10;5.53;;;2.58;;
53052;SDS011;38934;52.690;6.184;2023-07-31T14:20:36;7.95;;;3.50;;
53052;SDS011;38934;52.690;6.184;2023-07-31T14:23:02;5.72;;;2.70;;
53052;SDS011;38934;52.690;6.184;2023-07-31T14:25:29;5.38;;;2.88;;
53052;SDS011;38934;52.690;6.184;2023-07-31T14:27:55;6.72;;;3.55;;
53052;SDS011;38934;52.690;6.184;2023-07-31T14:30:21;7.63;;;2.92;;
53052;SDS011;38934;52.690;6.184;2023-07-31T14:32:47;5.93;;;2.80;;
53052;SDS011;38934;52.690;6.184;2023-07-31T14:35:13;5.75;;;2.90;;
53052;SDS011;38934;52.690;6.184;2023-07-31T14:37:40;5.93;;;2.60;;
53052;SDS011;38934;52.690;6.184;2023-07-31T14:40:07;5.68;;;2.78;;
53052;SDS011;38934;52.690;6.184;2023-07-31T14:42:33;6.13;;;3.10;;
53052;SDS011;38934;52.690;6.184;2023-07-31T14:44:59;7.05;;;2.60;;